Rochester, MN (55901)

9:45 AM CST on February 20, 2017 (GMT -0600)
Crescent Park | | Change Station

Elev 1025 ft 44.06 °N, 92.48 °W | Updated 5 minutes ago

Mostly Cloudy
Mostly Cloudy
50.8 °F
Feels Like 50.8 °F
N
0.0
Wind Variable Wind from East
Gusts 2.2 mph

Today
High -- | Low -- °F
--% Chance of Precip.
Yesterday
High -- | Low -- °F
Precip. -- in
Pressure 29.86 in
Visibility 7.0 miles
Clouds Scattered Clouds 800 ft
Mostly Cloudy 10000 ft
Mostly Cloudy 12000 ft
Dew Point 42 °F
Humidity 73%
Rainfall 0.00 in
Snow Depth Not available.
7:01 AM 5:46 PM
Waning Crescent, 33% visible
METAR K9MN 201533Z AUTO 14009G19KT 120V190 7SM SCT008 BKN100 BKN120 10/09 A2986 RMK AO1 T01000092
Pressure 29.86 in
Visibility 7.0 miles
Clouds Scattered Clouds 800 ft
Mostly Cloudy 10000 ft
Mostly Cloudy 12000 ft
Dew Point 42 °F
Humidity 73%
Rainfall 0.00 in
Snow Depth Not available.
7:01 AM 5:46 PM
Waning Crescent, 33% visible
METAR K9MN 201533Z AUTO 14009G19KT 120V190 7SM SCT008 BKN100 BKN120 10/09 A2986 RMK AO1 T01000092

Get Your Daily Forecast Email!

Thanks for signing up!

Be on the lookout for a verification email in your inbox.

You'll start receiving the daily forecast at 8 AM.

×

10-Day Weather Forecast

Almanac

Astronomy

Feb. 20, 2017 Rise Set
Actual Time
Civil Twilight
Nautical Twilight
Astronomical Twilight
Moon
Length of Visible Light
Length of Day
Tomorrow will be .
, % of the Moon is Illuminated

Today's Extremes

State Highs State Lows

Community

WunderPhotos

Upload Photos

1,962,540 photos uploaded!

WunderBlog® & News

Nearby

Air Quality

  Air Quality AQ Index Pollutant
Not available.

Snow Depth

Station Depth Elevation

Earthquake Activity

City Distance Mag. Time & Date
Minimum magnitude displayed is 2.5.

Coastal Water Temperatures

Place Temperature

Stations

Nearby Weather Stations

Station Location Temp. Windchill Dew Point Humidity Wind Precip. Elev Updated Type
                   

Watches & Warnings

There are currently no watches in effect.